Hunters, WA (99137)

7:43 AM PDT on July 24, 2016 (GMT -0700)
Waterloo | | Change Station

Elev 2379 ft 48.37 °N, 118.12 °W | Updated 30 seconds ago

Clear
Clear
56.8 °F
Feels Like 56.8 °F
N
0.0
Wind Variable Wind from SW
Gusts 0.0 mph

Today
High -- | Low -- °F
--% Chance of Precip.
Yesterday
High -- | Low -- °F
Precip. -- in
Pressure 30.12 in
Visibility 10.0 miles
Clouds Clear
Dew Point 51 °F
Humidity 81%
Rainfall 0.00 in
Snow Depth Not available.
5:18 AM 8:38 PM
Waning Gibbous, 76% visible
METAR KDEW 241353Z AUTO 00000KT 10SM CLR 14/11 A3014 RMK AO2 SLP198 T01390106
Pressure 30.12 in
Visibility 10.0 miles
Clouds Clear
Dew Point 51 °F
Humidity 81%
Rainfall 0.00 in
Snow Depth Not available.
5:18 AM 8:38 PM
Waning Gibbous, 76% visible
METAR KDEW 241353Z AUTO 00000KT 10SM CLR 14/11 A3014 RMK AO2 SLP198 T01390106

10-Day Weather Forecast

Almanac

Astronomy

Jul. 24, 2016 Rise Set
Actual Time
Civil Twilight
Nautical Twilight
Astronomical Twilight
Moon
Length of Visible Light
Length of Day
Tomorrow will be .
, % of the Moon is Illuminated

Today's Extremes

State Highs State Lows

Community

WunderPhotos

Upload Photos

1,927,071 photos uploaded!

WunderBlog® & News

Nearby

Air Quality

  Air Quality AQ Index Pollutant
Not available.

Snow Depth

Station Depth Elevation

Earthquake Activity

City Distance Mag. Time & Date
Minimum magnitude displayed is 2.5.

Coastal Water Temperatures

Place Temperature

Stations

Nearby Weather Stations

Station Location Temp. Windchill Dew Point Humidity Wind Precip. Elev Updated Type
                   

Watches & Warnings

There are currently no watches in effect.